Mansfield, TX (76063)

3:55 AM CDT on October 26, 2014 (GMT -0500)
Cest La Vie | Change Station
CLOSE
Current Station
Personal Weather Station
Location: Mansfield, TX
Elevation: 643 ft
Nearby Weather Stations

Elev 643 ft 32.57 °N, 97.17 °W | Updated 14 minutes ago

Clear
Clear
67.6 °F
Feels Like 67.6 °F
N
2.7
Wind Variable Wind from SSE

Today
High -- | Low -- °F
--% Chance of Precip.
Yesterday
High -- | Low -- °F
Precip. -- in
7:41 AM 6:43 PM
Waxing Crescent, 7% visible
Pressure 30.00 in
Visibility 10.0 miles
Clouds Clear
Dew Point 56 °F
Humidity 67%
Rainfall 0.00 in
Snow Depth Not available.
UV 0 out of 12
Pollen 5.20 out of 12
Ozone Good
PM2.5 Moderate
Flu Activity Local Activity
METAR KGKY 260753Z AUTO 17006KT 10SM CLR 21/15 A3002 RMK AO2 SLP157 T02060150

More Conditions Fewer Conditions

Pressure 30.00 in
Visibility 10.0 miles
Clouds Clear
Dew Point 56 °F
Humidity 67%
Rainfall 0.00 in
Snow Depth Not available.
UV 0 out of 12
Pollen 5.20 out of 12
Ozone Good
PM2.5 Moderate
Flu Activity Local Activity
METAR KGKY 260753Z AUTO 17006KT 10SM CLR 21/15 A3002 RMK AO2 SLP157 T02060150

More Conditions Fewer Conditions

10-Day Weather Forecast

Almanac

Astronomy

Oct. 26, 2014 Rise Set
Actual Time 7:41 AM CDT 6:43 PM CDT
Civil Twilight 7:15 AM CDT 7:08 PM CDT
Nautical Twilight 6:47 AM CDT 7:37 PM CDT
Astronomical Twilight 6:18 AM CDT 8:06 PM CDT
Moon 10:14 AM CDT 9:02 PM CDT
Length of Visible Light 11h 52m
Length of Day
11h 02m
Tomorrow will be 1m 49s shorter.
Waxing Crescent, 7% of the Moon is Illuminated
Today
Waxing Crescent
Oct 30
First Quarter
Nov 6
Full
Nov 14
Last Quarter
Nov 22
New

Today's Extremes

State Highs State Lows

Community

WunderPhotos

Upload Photos

1,765,127 photos uploaded!

Nearby

Air Quality

  Air Quality AQ Index Pollutant
Yesterday Moderate
OZONE
Yesterday Moderate
PM2.5
Current Moderate
PM2.5
Current Good
OZONE
Sunday Moderate
OZONE
Sunday Good
PM10
Monday Good
OZONE
Monday Good
PM10
Tuesday Good
OZONE
Tuesday Good
PM10

Snow Depth

Station Depth Elevation
No new snow has been reported.

Earthquake Activity

City Distance Mag. Time & Date
No recent earthquake activity has been reported nearby.
Minimum magnitude displayed is 2.5.

Coastal Water Temperatures

Place Temperature
No Stations Reporting

Nearby Weather Stations